createdAt,value
2019-04-14T00:03:50.122Z,98199.00
2019-04-14T00:07:51.756Z,98196.00
2019-04-14T00:11:52.838Z,98201.00
2019-04-14T00:15:55.022Z,98203.00
2019-04-14T00:19:56.659Z,98191.00
2019-04-14T00:23:58.746Z,98198.00
2019-04-14T00:28:00.770Z,98199.00
2019-04-14T00:32:02.981Z,98186.00
2019-04-14T00:36:23.802Z,98192.00
2019-04-14T00:40:33.090Z,98181.00
2019-04-14T00:44:41.010Z,98187.00
2019-04-14T00:48:43.063Z,98189.00
2019-04-14T00:52:43.983Z,98185.00
2019-04-14T00:56:45.472Z,98187.00
2019-04-14T01:00:47.354Z,98194.00
2019-04-14T01:04:49.146Z,98185.00
2019-04-14T01:08:51.135Z,98182.00
2019-04-14T01:12:52.283Z,98185.00
2019-04-14T01:16:53.825Z,98185.00
2019-04-14T01:20:55.740Z,98175.00
2019-04-14T01:24:57.566Z,98176.00
2019-04-14T01:28:59.355Z,98170.00
2019-04-14T01:33:01.102Z,98178.00
2019-04-14T01:37:02.959Z,98170.00
2019-04-14T01:41:04.312Z,98180.00
2019-04-14T01:45:05.754Z,98178.00
2019-04-14T01:49:07.210Z,98170.00
2019-04-14T01:53:27.193Z,98167.00
2019-04-14T01:57:44.333Z,98177.00
2019-04-14T02:01:47.817Z,98174.00
2019-04-14T02:05:49.631Z,98190.00
2019-04-14T02:09:51.110Z,98190.00
2019-04-14T02:13:52.885Z,98184.00
2019-04-14T02:17:54.651Z,98191.00
2019-04-14T02:21:56.344Z,98185.00
2019-04-14T02:25:57.997Z,98177.00
2019-04-14T02:30:00.359Z,98189.00
2019-04-14T02:34:34.229Z,98183.00
2019-04-14T02:42:46.726Z,98193.00
2019-04-14T02:46:45.897Z,98193.00
2019-04-14T02:50:43.643Z,98186.00
2019-04-14T02:59:35.520Z,98195.00
2019-04-14T03:02:45.032Z,98200.00
2019-04-14T03:06:50.091Z,98194.00
2019-04-14T03:10:55.833Z,98180.00
2019-04-14T03:15:01.045Z,98189.00
2019-04-14T03:19:06.233Z,98177.00
2019-04-14T03:23:18.970Z,98190.00
2019-04-14T03:27:24.943Z,98188.00
2019-04-14T03:39:44.354Z,98182.00
2019-04-14T03:47:31.071Z,98190.00
2019-04-14T03:51:45.070Z,98183.00
2019-04-14T03:55:54.398Z,98183.00
2019-04-14T03:59:50.501Z,98193.00
2019-04-14T04:03:52.167Z,98184.00
2019-04-14T04:07:53.849Z,98191.00
2019-04-14T04:11:54.891Z,98186.00
2019-04-14T04:15:58.419Z,98175.00
2019-04-14T04:20:02.470Z,98183.00
2019-04-14T04:24:06.429Z,98185.00
2019-04-14T04:28:23.196Z,98186.00
2019-04-14T04:32:36.225Z,98199.00
2019-04-14T04:36:51.515Z,98199.00
2019-04-14T04:40:52.860Z,98211.00
2019-04-14T04:44:55.243Z,98193.00
2019-04-14T04:49:04.476Z,98208.00
2019-04-14T04:53:00.371Z,98226.00
2019-04-14T04:57:02.488Z,98234.00
2019-04-14T05:01:03.587Z,98239.00
2019-04-14T05:05:42.581Z,98231.00
2019-04-14T05:09:46.859Z,98229.00
2019-04-14T05:13:51.108Z,98227.00
2019-04-14T05:17:52.227Z,98235.00
2019-04-14T05:21:53.802Z,98227.00
2019-04-14T05:25:55.958Z,98239.00
2019-04-14T05:29:58.034Z,98241.00
2019-04-14T05:33:59.959Z,98255.00
2019-04-14T05:38:01.845Z,98258.00
2019-04-14T05:42:08.577Z,98258.00
2019-04-14T05:46:05.758Z,98274.00
2019-04-14T05:50:07.360Z,98263.00
2019-04-14T05:54:08.334Z,98263.00
2019-04-14T05:58:09.993Z,98257.00
2019-04-14T06:02:11.573Z,98273.00
2019-04-14T06:06:12.621Z,98281.00
2019-04-14T06:10:13.658Z,98294.00
2019-04-14T06:14:14.640Z,98291.00
2019-04-14T06:18:15.893Z,98305.00
2019-04-14T06:22:16.756Z,98312.00
2019-04-14T06:26:17.756Z,98305.00
2019-04-14T06:30:38.584Z,98303.00
2019-04-14T06:34:58.138Z,98308.00
2019-04-14T06:39:07.002Z,98308.00
2019-04-14T06:43:08.023Z,98300.00
2019-04-14T06:47:09.016Z,98305.00
2019-04-14T06:51:09.896Z,98310.00
2019-04-14T06:55:10.875Z,98311.00
2019-04-14T06:59:11.757Z,98301.00
2019-04-14T07:03:12.682Z,98303.00
2019-04-14T07:07:13.666Z,98303.00
2019-04-14T07:11:14.518Z,98305.00
2019-04-14T07:15:15.528Z,98302.00
2019-04-14T07:19:18.259Z,98292.00
2019-04-14T07:23:19.138Z,98300.00
2019-04-14T07:27:20.145Z,98308.00
2019-04-14T07:31:29.218Z,98310.00
2019-04-14T07:35:44.068Z,98320.00
2019-04-14T07:39:46.966Z,98319.00
2019-04-14T07:44:01.935Z,98312.00
2019-04-14T07:48:13.947Z,98316.00
2019-04-14T07:52:22.763Z,98321.00
2019-04-14T07:56:25.655Z,98314.00
2019-04-14T08:00:31.436Z,98316.00
2019-04-14T08:04:34.396Z,98314.00
2019-04-14T08:08:35.457Z,98303.00
2019-04-14T08:12:36.350Z,98307.00
2019-04-14T08:16:37.575Z,98305.00
2019-04-14T08:20:38.615Z,98312.00
2019-04-14T08:24:39.816Z,98307.00
2019-04-14T08:28:40.700Z,98316.00
2019-04-14T08:32:41.600Z,98313.00
2019-04-14T08:36:45.150Z,98314.00
2019-04-14T08:40:46.130Z,98321.00
2019-04-14T08:44:50.334Z,98326.00
2019-04-14T08:48:59.275Z,98338.00
2019-04-14T08:53:18.891Z,98338.00
2019-04-14T08:57:40.309Z,98328.00
2019-04-14T09:01:58.381Z,98320.00
2019-04-14T09:06:01.573Z,98320.00
2019-04-14T09:10:12.821Z,98324.00
2019-04-14T09:14:13.800Z,98315.00
2019-04-14T09:18:14.773Z,98311.00
2019-04-14T09:22:15.921Z,98326.00
2019-04-14T09:26:16.790Z,98327.00
2019-04-14T09:30:18.026Z,98324.00
2019-04-14T09:34:18.911Z,98326.00
2019-04-14T09:38:19.793Z,98327.00
2019-04-14T09:42:20.776Z,98329.00
2019-04-14T09:46:21.641Z,98324.00
2019-04-14T09:50:23.911Z,98329.00
2019-04-14T09:54:24.823Z,98335.00
2019-04-14T09:58:25.811Z,98343.00
2019-04-14T10:02:26.684Z,98330.00
2019-04-14T10:06:27.549Z,98329.00
2019-04-14T10:10:28.541Z,98338.00
2019-04-14T10:14:30.781Z,98320.00
2019-04-14T10:18:32.831Z,98328.00
2019-04-14T10:22:36.551Z,98338.00
2019-04-14T10:26:37.702Z,98333.00
2019-04-14T10:30:38.711Z,98335.00
2019-04-14T10:34:41.188Z,98339.00
2019-04-14T10:38:42.059Z,98334.00
2019-04-14T10:42:43.843Z,98338.00
2019-04-14T10:46:44.840Z,98342.00
2019-04-14T10:50:46.072Z,98334.00
2019-04-14T10:54:47.216Z,98338.00
2019-04-14T10:58:48.175Z,98344.00
2019-04-14T11:02:49.183Z,98343.00
2019-04-14T11:06:52.076Z,98339.00
2019-04-14T11:10:54.254Z,98328.00
2019-04-14T11:14:55.244Z,98338.00
2019-04-14T11:18:56.128Z,98329.00
2019-04-14T11:23:03.298Z,98343.00
2019-04-14T11:26:59.954Z,98341.00
2019-04-14T11:31:01.414Z,98343.00
2019-04-14T11:35:17.347Z,98332.00
2019-04-14T11:39:20.295Z,98347.00
2019-04-14T11:43:21.318Z,98320.00
2019-04-14T11:47:22.293Z,98345.00
2019-04-14T11:51:23.539Z,98354.00
2019-04-14T11:55:24.433Z,98342.00
2019-04-14T11:59:33.295Z,98356.00
2019-04-14T12:03:36.238Z,98373.00
2019-04-14T12:07:41.973Z,98364.00
2019-04-14T12:11:42.933Z,98352.00
2019-04-14T12:15:43.999Z,98365.00
2019-04-14T12:19:44.938Z,98365.00
2019-04-14T12:23:45.827Z,98369.00
2019-04-14T12:27:46.700Z,98369.00
2019-04-14T12:31:48.643Z,98367.00
2019-04-14T12:35:49.711Z,98368.00
2019-04-14T12:39:50.835Z,98371.00
2019-04-14T12:44:10.606Z,98374.00
2019-04-14T12:48:14.494Z,98380.00
2019-04-14T12:52:21.632Z,98392.00
2019-04-14T12:56:22.328Z,98385.00
2019-04-14T13:00:31.129Z,98385.00
2019-04-14T13:04:32.244Z,98388.00
2019-04-14T13:08:33.344Z,98384.00
2019-04-14T13:12:34.330Z,98390.00
2019-04-14T13:16:35.364Z,98377.00
2019-04-14T13:20:36.494Z,98390.00
2019-04-14T13:24:37.665Z,98377.00
2019-04-14T13:28:38.723Z,98379.00
2019-04-14T13:32:39.692Z,98385.00
2019-04-14T13:36:41.289Z,98388.00
2019-04-14T13:40:42.218Z,98392.00
2019-04-14T13:44:43.208Z,98395.00
2019-04-14T13:48:44.087Z,98396.00
2019-04-14T13:52:46.990Z,98390.00
2019-04-14T13:56:48.118Z,98392.00
2019-04-14T14:00:49.099Z,98381.00
2019-04-14T14:04:49.989Z,98368.00
2019-04-14T14:08:50.832Z,98394.00
2019-04-14T14:12:56.959Z,98388.00
2019-04-14T14:17:02.521Z,98388.00
2019-04-14T14:21:11.467Z,98396.00
2019-04-14T14:25:14.472Z,98395.00
2019-04-14T14:29:15.602Z,98397.00
2019-04-14T14:33:16.577Z,98391.00
2019-04-14T14:37:17.675Z,98393.00
2019-04-14T14:41:18.617Z,98371.00
2019-04-14T14:45:36.444Z,98394.00
2019-04-14T14:49:57.625Z,98382.00
2019-04-14T14:53:58.655Z,98367.00
2019-04-14T14:57:59.792Z,98370.00
2019-04-14T15:02:00.679Z,98379.00
2019-04-14T15:06:01.652Z,98391.00
2019-04-14T15:10:05.091Z,98401.00
2019-04-14T15:14:06.893Z,98388.00
2019-04-14T15:18:08.010Z,98388.00
2019-04-14T15:22:08.961Z,98402.00
2019-04-14T15:26:09.864Z,98393.00
2019-04-14T15:30:13.081Z,98404.00
2019-04-14T15:34:14.078Z,98412.00
2019-04-14T15:38:15.132Z,98393.00
2019-04-14T15:42:16.353Z,98411.00
2019-04-14T15:46:17.344Z,98430.00
2019-04-14T15:50:18.391Z,98424.00
2019-04-14T15:54:19.474Z,98421.00
2019-04-14T15:58:31.311Z,98429.00
2019-04-14T16:02:34.074Z,98427.00
2019-04-14T16:06:45.838Z,98430.00
2019-04-14T16:10:56.413Z,98435.00
2019-04-14T16:15:05.148Z,98439.00
2019-04-14T16:19:10.936Z,98450.00
2019-04-14T16:23:11.879Z,98430.00
2019-04-14T16:27:31.725Z,98460.00
2019-04-14T16:31:51.146Z,98449.00
2019-04-14T16:35:52.753Z,98450.00
2019-04-14T16:39:53.779Z,98447.00
2019-04-14T16:43:54.766Z,98454.00
2019-04-14T16:47:55.783Z,98465.00
2019-04-14T16:51:58.813Z,98467.00
2019-04-14T16:56:04.473Z,98469.00
2019-04-14T17:00:08.077Z,98480.00
2019-04-14T17:04:09.167Z,98476.00
2019-04-14T17:08:10.331Z,98476.00
2019-04-14T17:12:12.474Z,98485.00
2019-04-14T17:16:30.680Z,98504.00
2019-04-14T17:20:33.633Z,98509.00
2019-04-14T17:24:36.470Z,98517.00
2019-04-14T17:28:42.103Z,98518.00
2019-04-14T17:32:49.673Z,98515.00
2019-04-14T17:36:58.494Z,98515.00
2019-04-14T17:41:04.087Z,98513.00
2019-04-14T17:45:11.490Z,98524.00
2019-04-14T17:49:14.308Z,98524.00
2019-04-14T17:53:32.281Z,98527.00
2019-04-14T17:57:51.692Z,98540.00
2019-04-14T18:02:12.689Z,98543.00
2019-04-14T18:06:18.483Z,98553.00
2019-04-14T18:10:37.986Z,98554.00
2019-04-14T18:14:55.820Z,98556.00
2019-04-14T18:19:01.697Z,98566.00
2019-04-14T18:23:02.687Z,98577.00
2019-04-14T18:27:03.596Z,98578.00
2019-04-14T18:31:09.144Z,98574.00
2019-04-14T18:35:12.164Z,98580.00
2019-04-14T18:39:15.068Z,98576.00
2019-04-14T18:43:18.402Z,98585.00
2019-04-14T18:47:24.083Z,98582.00
2019-04-14T18:51:35.982Z,98588.00
2019-04-14T18:55:45.171Z,98597.00
2019-04-14T18:59:51.189Z,98609.00
2019-04-14T19:03:52.427Z,98608.00
2019-04-14T19:07:54.003Z,98607.00
2019-04-14T19:11:57.251Z,98606.00
2019-04-14T19:16:00.305Z,98604.00
2019-04-14T19:20:02.646Z,98604.00
2019-04-14T19:24:03.968Z,98603.00
2019-04-14T19:28:05.050Z,98603.00
2019-04-14T19:32:06.131Z,98604.00
2019-04-14T19:36:07.302Z,98616.00
2019-04-14T19:40:08.862Z,98605.00
2019-04-14T19:44:09.977Z,98620.00
2019-04-14T19:48:11.094Z,98611.00
2019-04-14T19:52:12.135Z,98612.00
2019-04-14T19:56:14.434Z,98618.00
2019-04-14T20:00:15.798Z,98621.00
2019-04-14T20:04:16.878Z,98617.00
2019-04-14T20:08:18.014Z,98627.00
2019-04-14T20:12:18.988Z,98623.00
2019-04-14T20:16:37.493Z,98632.00
2019-04-14T20:20:43.404Z,98645.00
2019-04-14T20:24:52.254Z,98641.00
2019-04-14T20:28:55.278Z,98635.00
2019-04-14T20:32:56.545Z,98648.00
2019-04-14T20:36:57.701Z,98646.00
2019-04-14T20:40:58.673Z,98655.00
2019-04-14T20:44:59.788Z,98661.00
2019-04-14T20:49:00.770Z,98664.00
2019-04-14T20:53:01.881Z,98663.00
2019-04-14T20:57:03.161Z,98666.00
2019-04-14T21:01:05.931Z,98671.00
2019-04-14T21:05:11.814Z,98677.00
2019-04-14T21:09:17.569Z,98677.00
2019-04-14T21:13:29.365Z,98681.00
2019-04-14T21:17:32.169Z,98682.00
2019-04-14T21:21:43.885Z,98683.00
2019-04-14T21:26:00.814Z,98687.00
2019-04-14T21:30:00.314Z,98688.00
2019-04-14T21:34:15.296Z,98690.00
2019-04-14T21:38:18.187Z,98692.00
2019-04-14T21:42:19.820Z,98686.00
2019-04-14T21:46:21.000Z,98696.00
2019-04-14T21:50:21.918Z,98692.00
2019-04-14T21:54:23.020Z,98699.00
2019-04-14T21:58:31.753Z,98706.00
2019-04-14T22:02:51.169Z,98707.00
2019-04-14T22:06:54.045Z,98708.00
2019-04-14T22:10:59.818Z,98696.00
2019-04-14T22:15:00.728Z,98701.00
2019-04-14T22:19:01.707Z,98705.00
2019-04-14T22:23:04.726Z,98707.00
2019-04-14T22:27:05.923Z,98710.00
2019-04-14T22:31:07.045Z,98710.00
2019-04-14T22:35:08.138Z,98697.00
2019-04-14T22:39:11.048Z,98685.00
2019-04-14T22:43:12.293Z,98683.00
2019-04-14T22:47:13.169Z,98684.00
2019-04-14T22:51:14.132Z,98698.00
2019-04-14T22:55:15.146Z,98683.00
2019-04-14T22:59:16.025Z,98675.00
2019-04-14T23:03:21.648Z,98675.00
2019-04-14T23:07:24.470Z,98673.00
2019-04-14T23:11:33.430Z,98669.00
2019-04-14T23:15:51.253Z,98676.00
2019-04-14T23:19:57.130Z,98676.00
2019-04-14T23:23:59.921Z,98679.00
2019-04-14T23:28:00.904Z,98676.00
2019-04-14T23:32:01.867Z,98673.00
2019-04-14T23:36:02.835Z,98673.00
2019-04-14T23:40:05.402Z,98664.00
2019-04-14T23:44:06.379Z,98676.00
2019-04-14T23:48:07.542Z,98675.00
2019-04-14T23:52:08.419Z,98669.00
2019-04-14T23:56:09.302Z,98665.00
